sensor_id;sensor_type;location;lat;lon;timestamp;temperature;humidity
44695;DHT22;32845;59.422;17.930;2023-01-29T00:04:17;0.80;99.90
44695;DHT22;32845;59.422;17.930;2023-01-29T00:08:48;0.80;99.90
44695;DHT22;32845;59.422;17.930;2023-01-29T00:13:19;0.80;99.90
44695;DHT22;32845;59.422;17.930;2023-01-29T00:17:49;0.80;99.90
44695;DHT22;32845;59.422;17.930;2023-01-29T00:22:20;0.80;99.90
44695;DHT22;32845;59.422;17.930;2023-01-29T00:26:51;0.70;99.90
44695;DHT22;32845;59.422;17.930;2023-01-29T00:31:23;0.80;99.90
44695;DHT22;32845;59.422;17.930;2023-01-29T00:35:57;0.70;99.90
44695;DHT22;32845;59.422;17.930;2023-01-29T00:40:27;0.70;99.90
44695;DHT22;32845;59.422;17.930;2023-01-29T00:45:18;0.70;99.90
44695;DHT22;32845;59.422;17.930;2023-01-29T00:49:49;0.70;99.90
44695;DHT22;32845;59.422;17.930;2023-01-29T00:54:20;0.70;99.90
44695;DHT22;32845;59.422;17.930;2023-01-29T00:58:50;0.70;99.90
44695;DHT22;32845;59.422;17.930;2023-01-29T01:03:21;0.80;99.90
44695;DHT22;32845;59.422;17.930;2023-01-29T01:07:54;0.80;99.90
44695;DHT22;32845;59.422;17.930;2023-01-29T01:12:26;0.80;99.90
44695;DHT22;32845;59.422;17.930;2023-01-29T01:16:57;0.80;99.90
44695;DHT22;32845;59.422;17.930;2023-01-29T01:21:28;0.80;99.90
44695;DHT22;32845;59.422;17.930;2023-01-29T01:25:58;0.80;99.90
44695;DHT22;32845;59.422;17.930;2023-01-29T01:30:29;0.80;99.90
44695;DHT22;32845;59.422;17.930;2023-01-29T01:35:00;0.80;99.90
44695;DHT22;32845;59.422;17.930;2023-01-29T01:39:30;0.80;99.90
44695;DHT22;32845;59.422;17.930;2023-01-29T01:44:02;0.80;99.90
44695;DHT22;32845;59.422;17.930;2023-01-29T01:48:33;0.80;99.90
44695;DHT22;32845;59.422;17.930;2023-01-29T01:53:10;0.80;99.90
44695;DHT22;32845;59.422;17.930;2023-01-29T01:57:42;0.80;99.90
44695;DHT22;32845;59.422;17.930;2023-01-29T02:02:15;0.80;99.90
44695;DHT22;32845;59.422;17.930;2023-01-29T02:07:07;0.90;99.90
44695;DHT22;32845;59.422;17.930;2023-01-29T02:11:57;0.90;99.90
44695;DHT22;32845;59.422;17.930;2023-01-29T02:16:28;0.90;99.90
44695;DHT22;32845;59.422;17.930;2023-01-29T02:21:14;0.90;99.90
44695;DHT22;32845;59.422;17.930;2023-01-29T02:35:25;1.00;99.90
44695;DHT22;32845;59.422;17.930;2023-01-29T02:40:22;0.90;99.90
44695;DHT22;32845;59.422;17.930;2023-01-29T02:45:21;0.90;99.90
44695;DHT22;32845;59.422;17.930;2023-01-29T02:54:38;0.90;99.90
44695;DHT22;32845;59.422;17.930;2023-01-29T02:59:21;0.80;99.90
44695;DHT22;32845;59.422;17.930;2023-01-29T03:03:56;0.70;99.90
44695;DHT22;32845;59.422;17.930;2023-01-29T03:08:53;0.60;99.90
44695;DHT22;32845;59.422;17.930;2023-01-29T03:13:36;0.50;99.90
44695;DHT22;32845;59.422;17.930;2023-01-29T03:18:13;0.40;99.90
44695;DHT22;32845;59.422;17.930;2023-01-29T03:22:50;0.30;99.90
44695;DHT22;32845;59.422;17.930;2023-01-29T03:27:26;0.20;99.90
44695;DHT22;32845;59.422;17.930;2023-01-29T03:32:18;0.10;99.90
44695;DHT22;32845;59.422;17.930;2023-01-29T03:36:56;0.10;99.90
44695;DHT22;32845;59.422;17.930;2023-01-29T03:41:32;0.10;99.90
44695;DHT22;32845;59.422;17.930;2023-01-29T03:46:09;0.10;99.90
44695;DHT22;32845;59.422;17.930;2023-01-29T04:00:28;0.10;99.90
44695;DHT22;32845;59.422;17.930;2023-01-29T04:05:05;0.00;99.90
44695;DHT22;32845;59.422;17.930;2023-01-29T04:09:46;0.10;99.90
44695;DHT22;32845;59.422;17.930;2023-01-29T04:14:18;0.20;99.90
44695;DHT22;32845;59.422;17.930;2023-01-29T04:18:49;0.20;99.90
44695;DHT22;32845;59.422;17.930;2023-01-29T04:23:25;0.30;99.90
44695;DHT22;32845;59.422;17.930;2023-01-29T04:28:22;0.40;99.90
44695;DHT22;32845;59.422;17.930;2023-01-29T04:43:03;0.50;99.90
44695;DHT22;32845;59.422;17.930;2023-01-29T04:57:44;0.60;99.90
44695;DHT22;32845;59.422;17.930;2023-01-29T05:02:21;0.60;99.90
44695;DHT22;32845;59.422;17.930;2023-01-29T05:06:54;0.60;99.90
44695;DHT22;32845;59.422;17.930;2023-01-29T05:11:25;0.70;99.90
44695;DHT22;32845;59.422;17.930;2023-01-29T05:16:22;0.70;99.90
44695;DHT22;32845;59.422;17.930;2023-01-29T05:20:55;0.70;99.90
44695;DHT22;32845;59.422;17.930;2023-01-29T05:25:30;0.70;99.90
44695;DHT22;32845;59.422;17.930;2023-01-29T05:30:01;0.70;99.90
44695;DHT22;32845;59.422;17.930;2023-01-29T05:34:32;0.70;99.90
44695;DHT22;32845;59.422;17.930;2023-01-29T05:39:03;0.70;99.90
44695;DHT22;32845;59.422;17.930;2023-01-29T05:43:34;0.70;99.90
44695;DHT22;32845;59.422;17.930;2023-01-29T05:48:05;0.70;99.90
44695;DHT22;32845;59.422;17.930;2023-01-29T05:52:35;0.80;99.90
44695;DHT22;32845;59.422;17.930;2023-01-29T05:57:06;0.80;99.90
44695;DHT22;32845;59.422;17.930;2023-01-29T06:01:37;0.80;99.90
44695;DHT22;32845;59.422;17.930;2023-01-29T06:06:07;0.80;99.90
44695;DHT22;32845;59.422;17.930;2023-01-29T06:10:38;0.80;99.90
44695;DHT22;32845;59.422;17.930;2023-01-29T06:15:10;0.80;99.90
44695;DHT22;32845;59.422;17.930;2023-01-29T06:19:41;0.80;99.90
44695;DHT22;32845;59.422;17.930;2023-01-29T06:24:12;0.80;99.90
44695;DHT22;32845;59.422;17.930;2023-01-29T06:28:42;0.80;99.90
44695;DHT22;32845;59.422;17.930;2023-01-29T06:33:15;0.80;99.90
44695;DHT22;32845;59.422;17.930;2023-01-29T06:37:45;0.80;99.90
44695;DHT22;32845;59.422;17.930;2023-01-29T06:42:16;0.80;99.90
44695;DHT22;32845;59.422;17.930;2023-01-29T06:46:47;0.90;99.90
44695;DHT22;32845;59.422;17.930;2023-01-29T06:51:18;0.90;99.90
44695;DHT22;32845;59.422;17.930;2023-01-29T06:55:52;0.90;99.90
44695;DHT22;32845;59.422;17.930;2023-01-29T07:00:23;0.90;99.90
44695;DHT22;32845;59.422;17.930;2023-01-29T07:04:53;0.90;99.90
44695;DHT22;32845;59.422;17.930;2023-01-29T07:09:24;0.80;99.90
44695;DHT22;32845;59.422;17.930;2023-01-29T07:13:55;0.80;99.90
44695;DHT22;32845;59.422;17.930;2023-01-29T07:18:29;0.70;99.90
44695;DHT22;32845;59.422;17.930;2023-01-29T07:23:00;0.80;99.90
44695;DHT22;32845;59.422;17.930;2023-01-29T07:27:30;0.80;99.90
44695;DHT22;32845;59.422;17.930;2023-01-29T07:32:01;0.80;99.90
44695;DHT22;32845;59.422;17.930;2023-01-29T07:36:32;0.80;99.90
44695;DHT22;32845;59.422;17.930;2023-01-29T07:41:03;0.80;99.90
44695;DHT22;32845;59.422;17.930;2023-01-29T07:45:35;0.80;99.90
44695;DHT22;32845;59.422;17.930;2023-01-29T07:50:06;0.80;99.90
44695;DHT22;32845;59.422;17.930;2023-01-29T07:54:37;0.90;99.90
44695;DHT22;32845;59.422;17.930;2023-01-29T07:59:07;0.90;99.90
44695;DHT22;32845;59.422;17.930;2023-01-29T08:03:38;0.90;99.90
44695;DHT22;32845;59.422;17.930;2023-01-29T08:08:09;0.90;99.90
44695;DHT22;32845;59.422;17.930;2023-01-29T08:12:40;0.90;99.90
44695;DHT22;32845;59.422;17.930;2023-01-29T08:17:14;1.00;99.90
44695;DHT22;32845;59.422;17.930;2023-01-29T08:21:44;1.00;99.90
44695;DHT22;32845;59.422;17.930;2023-01-29T08:26:15;1.10;99.90
44695;DHT22;32845;59.422;17.930;2023-01-29T08:30:46;1.10;99.90
44695;DHT22;32845;59.422;17.930;2023-01-29T08:35:16;1.20;99.90
44695;DHT22;32845;59.422;17.930;2023-01-29T08:39:47;1.20;99.90
44695;DHT22;32845;59.422;17.930;2023-01-29T08:44:18;1.20;99.90
44695;DHT22;32845;59.422;17.930;2023-01-29T08:48:48;1.30;99.90
44695;DHT22;32845;59.422;17.930;2023-01-29T08:53:19;1.30;99.90
44695;DHT22;32845;59.422;17.930;2023-01-29T08:57:54;1.40;99.90
44695;DHT22;32845;59.422;17.930;2023-01-29T09:02:26;1.40;99.90
44695;DHT22;32845;59.422;17.930;2023-01-29T09:06:57;1.50;99.90
44695;DHT22;32845;59.422;17.930;2023-01-29T09:11:28;1.50;99.90
44695;DHT22;32845;59.422;17.930;2023-01-29T09:15:59;1.50;99.90
44695;DHT22;32845;59.422;17.930;2023-01-29T09:20:31;1.50;99.90
44695;DHT22;32845;59.422;17.930;2023-01-29T09:25:02;1.60;99.90
44695;DHT22;32845;59.422;17.930;2023-01-29T09:29:32;1.70;99.90
44695;DHT22;32845;59.422;17.930;2023-01-29T09:34:03;1.70;99.90
44695;DHT22;32845;59.422;17.930;2023-01-29T09:38:36;1.80;99.90
44695;DHT22;32845;59.422;17.930;2023-01-29T09:43:17;1.80;99.90
44695;DHT22;32845;59.422;17.930;2023-01-29T09:47:49;1.90;99.90
44695;DHT22;32845;59.422;17.930;2023-01-29T09:52:54;1.90;99.90
44695;DHT22;32845;59.422;17.930;2023-01-29T09:57:49;1.90;99.90
44695;DHT22;32845;59.422;17.930;2023-01-29T10:12:41;2.10;99.90
44695;DHT22;32845;59.422;17.930;2023-01-29T10:27:00;2.80;99.90
44695;DHT22;32845;59.422;17.930;2023-01-29T10:31:34;3.00;99.90
44695;DHT22;32845;59.422;17.930;2023-01-29T10:36:12;3.30;99.90
44695;DHT22;32845;59.422;17.930;2023-01-29T10:40:55;3.50;99.90
44695;DHT22;32845;59.422;17.930;2023-01-29T10:45:32;3.40;99.90
44695;DHT22;32845;59.422;17.930;2023-01-29T10:50:33;3.20;99.90
44695;DHT22;32845;59.422;17.930;2023-01-29T11:04:43;3.30;99.90
44695;DHT22;32845;59.422;17.930;2023-01-29T11:09:36;3.30;99.90
44695;DHT22;32845;59.422;17.930;2023-01-29T11:14:21;3.40;99.90
44695;DHT22;32845;59.422;17.930;2023-01-29T11:18:58;3.50;99.90
44695;DHT22;32845;59.422;17.930;2023-01-29T11:23:32;3.50;99.90
44695;DHT22;32845;59.422;17.930;2023-01-29T11:28:03;3.50;99.90
44695;DHT22;32845;59.422;17.930;2023-01-29T11:32:35;3.70;99.90
44695;DHT22;32845;59.422;17.930;2023-01-29T11:37:15;3.90;99.90
44695;DHT22;32845;59.422;17.930;2023-01-29T11:41:47;4.20;99.90
44695;DHT22;32845;59.422;17.930;2023-01-29T11:46:18;4.40;99.90
44695;DHT22;32845;59.422;17.930;2023-01-29T11:50:57;4.80;99.90
44695;DHT22;32845;59.422;17.930;2023-01-29T11:55:35;4.80;99.90
44695;DHT22;32845;59.422;17.930;2023-01-29T12:00:23;4.70;99.90
44695;DHT22;32845;59.422;17.930;2023-01-29T12:05:00;4.50;99.90
44695;DHT22;32845;59.422;17.930;2023-01-29T12:09:32;4.50;99.90
44695;DHT22;32845;59.422;17.930;2023-01-29T12:14:19;4.90;99.90
44695;DHT22;32845;59.422;17.930;2023-01-29T12:19:09;5.90;99.90
44695;DHT22;32845;59.422;17.930;2023-01-29T12:38:22;5.30;99.90
44695;DHT22;32845;59.422;17.930;2023-01-29T12:42:56;5.00;99.90
44695;DHT22;32845;59.422;17.930;2023-01-29T12:52:11;4.60;99.90
44695;DHT22;32845;59.422;17.930;2023-01-29T12:56:51;4.50;99.90
44695;DHT22;32845;59.422;17.930;2023-01-29T13:06:04;4.30;99.90
44695;DHT22;32845;59.422;17.930;2023-01-29T13:10:44;4.30;99.90
44695;DHT22;32845;59.422;17.930;2023-01-29T13:15:27;4.20;99.90
44695;DHT22;32845;59.422;17.930;2023-01-29T13:20:21;4.20;99.90
44695;DHT22;32845;59.422;17.930;2023-01-29T13:24:53;4.20;99.90
44695;DHT22;32845;59.422;17.930;2023-01-29T13:29:27;4.10;99.90
44695;DHT22;32845;59.422;17.930;2023-01-29T13:38:38;4.10;99.90
44695;DHT22;32845;59.422;17.930;2023-01-29T13:43:18;4.10;99.90
44695;DHT22;32845;59.422;17.930;2023-01-29T13:47:51;4.10;99.90
44695;DHT22;32845;59.422;17.930;2023-01-29T13:57:03;4.10;99.90
44695;DHT22;32845;59.422;17.930;2023-01-29T14:06:41;4.10;99.90
44695;DHT22;32845;59.422;17.930;2023-01-29T14:25:18;4.20;99.90
44695;DHT22;32845;59.422;17.930;2023-01-29T14:29:51;4.20;99.90
44695;DHT22;32845;59.422;17.930;2023-01-29T14:34:34;4.20;99.90
44695;DHT22;32845;59.422;17.930;2023-01-29T14:39:05;4.20;99.90
44695;DHT22;32845;59.422;17.930;2023-01-29T14:43:36;4.30;99.90
44695;DHT22;32845;59.422;17.930;2023-01-29T14:52:42;4.30;99.90
44695;DHT22;32845;59.422;17.930;2023-01-29T14:57:15;4.40;99.90
44695;DHT22;32845;59.422;17.930;2023-01-29T15:01:53;4.40;99.90
44695;DHT22;32845;59.422;17.930;2023-01-29T15:06:42;4.40;99.90
44695;DHT22;32845;59.422;17.930;2023-01-29T15:11:28;4.40;99.90
44695;DHT22;32845;59.422;17.930;2023-01-29T15:16:13;4.40;99.90
44695;DHT22;32845;59.422;17.930;2023-01-29T15:20:45;4.40;99.90
44695;DHT22;32845;59.422;17.930;2023-01-29T15:25:16;4.40;99.90
44695;DHT22;32845;59.422;17.930;2023-01-29T15:30:16;4.50;99.90
44695;DHT22;32845;59.422;17.930;2023-01-29T15:34:48;4.50;99.90
44695;DHT22;32845;59.422;17.930;2023-01-29T15:39:21;4.60;99.90
44695;DHT22;32845;59.422;17.930;2023-01-29T15:43:59;4.60;99.90
44695;DHT22;32845;59.422;17.930;2023-01-29T15:48:34;4.60;99.90
44695;DHT22;32845;59.422;17.930;2023-01-29T15:53:08;4.60;99.90
44695;DHT22;32845;59.422;17.930;2023-01-29T15:57:42;4.70;99.90
44695;DHT22;32845;59.422;17.930;2023-01-29T16:06:59;4.70;99.90
44695;DHT22;32845;59.422;17.930;2023-01-29T16:11:32;4.80;99.90
44695;DHT22;32845;59.422;17.930;2023-01-29T16:16:16;4.80;99.90
44695;DHT22;32845;59.422;17.930;2023-01-29T16:20:52;4.80;99.90
44695;DHT22;32845;59.422;17.930;2023-01-29T16:25:24;4.80;99.90
44695;DHT22;32845;59.422;17.930;2023-01-29T16:29:54;4.80;99.90
44695;DHT22;32845;59.422;17.930;2023-01-29T16:34:31;4.90;99.90
44695;DHT22;32845;59.422;17.930;2023-01-29T16:39:05;4.90;99.90
44695;DHT22;32845;59.422;17.930;2023-01-29T16:48:40;4.90;99.90
44695;DHT22;32845;59.422;17.930;2023-01-29T16:57:45;5.00;99.90
44695;DHT22;32845;59.422;17.930;2023-01-29T17:07:00;5.00;99.90
44695;DHT22;32845;59.422;17.930;2023-01-29T17:11:39;5.00;99.90
44695;DHT22;32845;59.422;17.930;2023-01-29T17:16:21;5.00;99.90
44695;DHT22;32845;59.422;17.930;2023-01-29T17:20:53;5.10;99.90
44695;DHT22;32845;59.422;17.930;2023-01-29T17:25:23;5.10;99.90
44695;DHT22;32845;59.422;17.930;2023-01-29T17:29:54;5.10;99.90
44695;DHT22;32845;59.422;17.930;2023-01-29T17:34:25;5.10;99.90
44695;DHT22;32845;59.422;17.930;2023-01-29T17:38:56;5.10;99.90
44695;DHT22;32845;59.422;17.930;2023-01-29T17:43:26;5.10;99.90
44695;DHT22;32845;59.422;17.930;2023-01-29T17:47:58;5.10;99.90
44695;DHT22;32845;59.422;17.930;2023-01-29T17:52:28;5.20;99.90
44695;DHT22;32845;59.422;17.930;2023-01-29T17:56:59;5.10;99.90
44695;DHT22;32845;59.422;17.930;2023-01-29T18:01:30;5.10;99.90
44695;DHT22;32845;59.422;17.930;2023-01-29T18:06:01;5.10;99.90
44695;DHT22;32845;59.422;17.930;2023-01-29T18:10:31;5.10;99.90
44695;DHT22;32845;59.422;17.930;2023-01-29T18:15:02;5.10;99.90
44695;DHT22;32845;59.422;17.930;2023-01-29T18:19:33;5.10;99.90
44695;DHT22;32845;59.422;17.930;2023-01-29T18:24:04;5.10;99.90
44695;DHT22;32845;59.422;17.930;2023-01-29T18:28:35;5.10;99.90
44695;DHT22;32845;59.422;17.930;2023-01-29T18:33:05;5.10;99.90
44695;DHT22;32845;59.422;17.930;2023-01-29T18:37:36;5.10;99.90
44695;DHT22;32845;59.422;17.930;2023-01-29T18:42:08;5.10;99.90
44695;DHT22;32845;59.422;17.930;2023-01-29T18:46:38;5.10;99.90
44695;DHT22;32845;59.422;17.930;2023-01-29T18:51:09;5.10;99.90
44695;DHT22;32845;59.422;17.930;2023-01-29T18:55:40;5.10;99.90
44695;DHT22;32845;59.422;17.930;2023-01-29T19:00:11;5.20;99.90
44695;DHT22;32845;59.422;17.930;2023-01-29T19:04:42;5.10;99.90
44695;DHT22;32845;59.422;17.930;2023-01-29T19:09:14;5.20;99.90
44695;DHT22;32845;59.422;17.930;2023-01-29T19:13:45;5.20;99.90
44695;DHT22;32845;59.422;17.930;2023-01-29T19:18:17;5.20;99.90
44695;DHT22;32845;59.422;17.930;2023-01-29T19:22:48;5.20;99.90
44695;DHT22;32845;59.422;17.930;2023-01-29T19:27:18;5.20;99.90
44695;DHT22;32845;59.422;17.930;2023-01-29T19:31:49;5.20;99.90
44695;DHT22;32845;59.422;17.930;2023-01-29T19:36:20;5.30;99.90
44695;DHT22;32845;59.422;17.930;2023-01-29T19:40:51;5.30;99.90
44695;DHT22;32845;59.422;17.930;2023-01-29T19:45:22;5.30;99.90
44695;DHT22;32845;59.422;17.930;2023-01-29T19:49:55;5.30;99.90
44695;DHT22;32845;59.422;17.930;2023-01-29T19:54:26;5.30;99.90
44695;DHT22;32845;59.422;17.930;2023-01-29T19:58:57;5.30;99.90
44695;DHT22;32845;59.422;17.930;2023-01-29T20:03:28;5.30;99.90
44695;DHT22;32845;59.422;17.930;2023-01-29T20:07:59;5.40;99.90
44695;DHT22;32845;59.422;17.930;2023-01-29T20:12:30;5.40;99.90
44695;DHT22;32845;59.422;17.930;2023-01-29T20:17:01;5.40;99.90
44695;DHT22;32845;59.422;17.930;2023-01-29T20:21:31;5.40;99.90
44695;DHT22;32845;59.422;17.930;2023-01-29T20:26:03;5.40;99.90
44695;DHT22;32845;59.422;17.930;2023-01-29T20:30:41;5.40;99.90
44695;DHT22;32845;59.422;17.930;2023-01-29T20:35:12;5.40;99.90
44695;DHT22;32845;59.422;17.930;2023-01-29T20:39:43;5.50;99.90
44695;DHT22;32845;59.422;17.930;2023-01-29T20:44:14;5.50;99.90
44695;DHT22;32845;59.422;17.930;2023-01-29T20:48:44;5.50;99.90
44695;DHT22;32845;59.422;17.930;2023-01-29T20:53:15;5.50;99.90
44695;DHT22;32845;59.422;17.930;2023-01-29T20:57:46;5.60;99.90
44695;DHT22;32845;59.422;17.930;2023-01-29T21:02:17;5.60;99.90
44695;DHT22;32845;59.422;17.930;2023-01-29T21:06:47;5.60;99.90
44695;DHT22;32845;59.422;17.930;2023-01-29T21:11:18;5.70;99.90
44695;DHT22;32845;59.422;17.930;2023-01-29T21:15:50;5.70;99.90
44695;DHT22;32845;59.422;17.930;2023-01-29T21:20:21;5.70;99.90
44695;DHT22;32845;59.422;17.930;2023-01-29T21:24:51;5.80;99.90
44695;DHT22;32845;59.422;17.930;2023-01-29T21:29:22;5.90;99.90
44695;DHT22;32845;59.422;17.930;2023-01-29T21:33:53;5.90;99.90
44695;DHT22;32845;59.422;17.930;2023-01-29T21:38:23;5.90;99.90
44695;DHT22;32845;59.422;17.930;2023-01-29T21:42:54;5.90;99.90
44695;DHT22;32845;59.422;17.930;2023-01-29T21:47:45;5.90;99.90
44695;DHT22;32845;59.422;17.930;2023-01-29T21:52:16;6.00;99.90
44695;DHT22;32845;59.422;17.930;2023-01-29T21:56:46;6.00;99.90
44695;DHT22;32845;59.422;17.930;2023-01-29T22:01:17;6.00;99.90
44695;DHT22;32845;59.422;17.930;2023-01-29T22:05:48;6.00;99.90
44695;DHT22;32845;59.422;17.930;2023-01-29T22:10:19;6.00;99.90
44695;DHT22;32845;59.422;17.930;2023-01-29T22:14:50;6.00;99.90
44695;DHT22;32845;59.422;17.930;2023-01-29T22:19:21;6.00;99.90
44695;DHT22;32845;59.422;17.930;2023-01-29T22:23:53;6.00;99.90
44695;DHT22;32845;59.422;17.930;2023-01-29T22:28:24;6.00;99.90
44695;DHT22;32845;59.422;17.930;2023-01-29T22:32:54;5.90;99.90
44695;DHT22;32845;59.422;17.930;2023-01-29T22:37:25;5.90;99.90
44695;DHT22;32845;59.422;17.930;2023-01-29T22:41:56;5.90;99.90
44695;DHT22;32845;59.422;17.930;2023-01-29T22:46:26;5.90;99.90
44695;DHT22;32845;59.422;17.930;2023-01-29T22:50:58;5.90;99.90
44695;DHT22;32845;59.422;17.930;2023-01-29T22:55:38;5.90;99.90
44695;DHT22;32845;59.422;17.930;2023-01-29T23:00:10;5.90;99.90
44695;DHT22;32845;59.422;17.930;2023-01-29T23:04:40;5.90;99.90
44695;DHT22;32845;59.422;17.930;2023-01-29T23:09:11;5.90;99.90
44695;DHT22;32845;59.422;17.930;2023-01-29T23:13:46;5.90;99.90
44695;DHT22;32845;59.422;17.930;2023-01-29T23:18:17;5.90;99.90
44695;DHT22;32845;59.422;17.930;2023-01-29T23:22:48;5.90;99.90
44695;DHT22;32845;59.422;17.930;2023-01-29T23:27:19;6.00;99.90
44695;DHT22;32845;59.422;17.930;2023-01-29T23:31:50;6.00;99.90
44695;DHT22;32845;59.422;17.930;2023-01-29T23:36:21;6.00;99.90
44695;DHT22;32845;59.422;17.930;2023-01-29T23:40:52;6.00;99.90
44695;DHT22;32845;59.422;17.930;2023-01-29T23:45:23;6.00;99.90
44695;DHT22;32845;59.422;17.930;2023-01-29T23:49:53;6.10;99.90
44695;DHT22;32845;59.422;17.930;2023-01-29T23:54:24;6.00;99.90
44695;DHT22;32845;59.422;17.930;2023-01-29T23:58:55;6.10;99.90
